createdAt,value
2018-09-04T00:00:45.525Z,19.79
2018-09-04T00:01:45.414Z,19.76
2018-09-04T00:02:45.321Z,19.74
2018-09-04T00:03:45.235Z,19.79
2018-09-04T00:04:45.129Z,19.64
2018-09-04T00:05:45.037Z,19.77
2018-09-04T00:06:44.935Z,19.66
2018-09-04T00:07:44.844Z,19.82
2018-09-04T00:08:44.752Z,19.92
2018-09-04T00:09:44.649Z,19.84
2018-09-04T00:10:44.859Z,19.86
2018-09-04T00:11:44.456Z,19.85
2018-09-04T00:12:44.364Z,19.76
2018-09-04T00:13:44.260Z,19.73
2018-09-04T00:14:44.170Z,19.63
2018-09-04T00:15:44.069Z,19.70
2018-09-04T00:16:43.989Z,19.69
2018-09-04T00:17:43.889Z,19.74
2018-09-04T00:18:43.782Z,19.66
2018-09-04T00:19:43.691Z,19.56
2018-09-04T00:20:43.589Z,19.69
2018-09-04T00:21:43.497Z,19.69
2018-09-04T00:22:43.394Z,19.66
2018-09-04T00:23:43.303Z,19.58
2018-09-04T00:24:43.201Z,19.63
2018-09-04T00:25:43.109Z,19.58
2018-09-04T00:26:43.020Z,19.45
2018-09-04T00:27:42.914Z,19.51
2018-09-04T00:28:42.824Z,19.52
2018-09-04T00:29:42.722Z,19.51
2018-09-04T00:30:42.629Z,19.59
2018-09-04T00:31:42.527Z,19.56
2018-09-04T00:32:42.438Z,19.54
2018-09-04T00:33:42.345Z,19.47
2018-09-04T00:34:42.241Z,19.51
2018-09-04T00:35:42.151Z,19.49
2018-09-04T00:36:42.048Z,19.52
2018-09-04T00:37:41.956Z,19.63
2018-09-04T00:38:41.852Z,19.58
2018-09-04T00:39:41.763Z,19.62
2018-09-04T00:40:41.960Z,19.54
2018-09-04T00:41:41.568Z,19.48
2018-09-04T00:42:41.467Z,19.49
2018-09-04T00:43:41.374Z,19.40
2018-09-04T00:44:41.282Z,19.40
2018-09-04T00:45:41.180Z,19.45
2018-09-04T00:46:41.093Z,19.40
2018-09-04T00:47:40.986Z,19.31
2018-09-04T00:48:40.895Z,19.39
2018-09-04T00:49:40.792Z,19.37
2018-09-04T00:50:40.701Z,19.44
2018-09-04T00:51:40.599Z,19.37
2018-09-04T00:52:40.506Z,19.34
2018-09-04T00:53:40.417Z,19.31
2018-09-04T00:54:40.313Z,19.37
2018-09-04T00:55:40.221Z,19.33
2018-09-04T00:56:40.119Z,19.24
2018-09-04T00:57:40.028Z,19.22
2018-09-04T00:58:39.949Z,19.24
2018-09-04T00:59:39.833Z,19.18
2018-09-04T01:00:39.731Z,19.14
2018-09-04T01:01:39.640Z,19.14
2018-09-04T01:02:39.538Z,19.22
2018-09-04T01:03:39.445Z,19.08
2018-09-04T01:04:39.355Z,19.14
2018-09-04T01:05:39.252Z,19.11
2018-09-04T01:06:39.161Z,19.08
2018-09-04T01:07:39.070Z,19.08
2018-09-04T01:08:38.967Z,19.09
2018-09-04T01:09:38.864Z,19.00
2018-09-04T01:10:38.772Z,19.08
2018-09-04T01:11:38.670Z,19.00
2018-09-04T01:12:38.579Z,19.12
2018-09-04T01:13:38.475Z,19.00
2018-09-04T01:14:38.383Z,18.93
2018-09-04T01:15:38.281Z,18.86
2018-09-04T01:16:38.191Z,18.90
2018-09-04T01:17:38.099Z,18.89
2018-09-04T01:18:37.999Z,18.86
2018-09-04T01:19:37.906Z,18.90
2018-09-04T01:20:37.803Z,18.74
2018-09-04T01:21:37.710Z,18.73
2018-09-04T01:22:37.607Z,18.74
2018-09-04T01:23:37.520Z,18.75
2018-09-04T01:24:37.414Z,18.77
2018-09-04T01:25:37.322Z,18.70
2018-09-04T01:26:37.220Z,18.65
2018-09-04T01:27:37.130Z,18.73
2018-09-04T01:28:37.026Z,18.71
2018-09-04T01:29:36.934Z,18.65
2018-09-04T01:30:36.831Z,18.65
2018-09-04T01:31:36.741Z,18.66
2018-09-04T01:32:36.649Z,18.60
2018-09-04T01:33:36.548Z,18.63
2018-09-04T01:34:36.456Z,18.65
2018-09-04T01:35:36.354Z,18.63
2018-09-04T01:36:36.261Z,18.58
2018-09-04T01:37:36.158Z,18.62
2018-09-04T01:38:36.068Z,18.65
2018-09-04T01:39:35.965Z,18.65
2018-09-04T01:40:36.173Z,18.66
2018-09-04T01:41:35.770Z,18.65
2018-09-04T01:42:35.679Z,18.60
2018-09-04T01:43:35.578Z,18.53
2018-09-04T01:44:35.485Z,18.59
2018-09-04T01:45:35.381Z,18.56
2018-09-04T01:46:35.295Z,18.60
2018-09-04T01:47:35.190Z,18.58
2018-09-04T01:48:35.097Z,18.58
2018-09-04T01:49:34.994Z,18.66
2018-09-04T01:50:35.153Z,18.56
2018-09-04T01:51:34.800Z,18.52
2018-09-04T01:52:34.710Z,18.45
2018-09-04T01:53:34.619Z,18.45
2018-09-04T01:54:34.514Z,18.45
2018-09-04T01:55:34.424Z,18.41
2018-09-04T01:56:34.321Z,18.45
2018-09-04T01:57:34.230Z,18.49
2018-09-04T01:58:34.127Z,18.40
2018-09-04T01:59:34.035Z,18.41
2018-09-04T02:00:33.932Z,18.31
2018-09-04T02:01:33.844Z,18.35
2018-09-04T02:02:33.742Z,18.37
2018-09-04T02:03:33.649Z,18.35
2018-09-04T02:04:33.544Z,18.38
2018-09-04T02:05:33.453Z,18.38
2018-09-04T02:06:33.349Z,18.47
2018-09-04T02:07:33.260Z,18.53
2018-09-04T02:08:33.155Z,18.56
2018-09-04T02:09:33.066Z,18.47
2018-09-04T02:10:32.961Z,18.43
2018-09-04T02:11:32.870Z,18.40
2018-09-04T02:12:32.768Z,18.43
2018-09-04T02:13:32.677Z,18.37
2018-09-04T02:14:32.574Z,18.34
2018-09-04T02:15:32.483Z,18.25
2018-09-04T02:16:32.380Z,18.31
2018-09-04T02:17:32.290Z,18.26
2018-09-04T02:18:32.186Z,18.28
2018-09-04T02:19:32.096Z,18.26
2018-09-04T02:20:31.990Z,18.25
2018-09-04T02:21:31.900Z,18.28
2018-09-04T02:22:31.801Z,18.28
2018-09-04T02:23:31.705Z,18.11
2018-09-04T02:24:31.602Z,18.10
2018-09-04T02:25:31.512Z,18.18
2018-09-04T02:26:31.409Z,18.11
2018-09-04T02:27:31.317Z,18.18
2018-09-04T02:28:31.217Z,18.08
2018-09-04T02:29:31.124Z,18.16
2018-09-04T02:30:31.021Z,18.13
2018-09-04T02:31:30.929Z,18.15
2018-09-04T02:32:30.840Z,18.15
2018-09-04T02:33:30.737Z,18.18
2018-09-04T02:34:30.633Z,18.15
2018-09-04T02:35:30.543Z,18.13
2018-09-04T02:36:30.438Z,18.05
2018-09-04T02:37:30.349Z,18.01
2018-09-04T02:38:30.246Z,18.08
2018-09-04T02:39:30.152Z,18.10
2018-09-04T02:40:30.050Z,18.03
2018-09-04T02:41:29.960Z,18.04
2018-09-04T02:42:29.857Z,18.04
2018-09-04T02:43:29.765Z,18.00
2018-09-04T02:44:29.661Z,17.92
2018-09-04T02:45:29.571Z,18.00
2018-09-04T02:46:29.467Z,17.86
2018-09-04T02:47:29.376Z,18.00
2018-09-04T02:48:29.273Z,17.87
2018-09-04T02:49:29.171Z,17.92
2018-09-04T02:50:29.080Z,17.90
2018-09-04T02:51:28.976Z,17.87
2018-09-04T02:52:28.885Z,17.92
2018-09-04T02:53:28.785Z,17.86
2018-09-04T02:54:28.692Z,17.89
2018-09-04T02:55:28.888Z,18.00
2018-09-04T02:56:28.497Z,17.98
2018-09-04T02:57:28.394Z,17.98
2018-09-04T02:58:28.304Z,17.89
2018-09-04T02:59:28.200Z,17.85
2018-09-04T03:00:28.108Z,17.95
2018-09-04T03:01:28.007Z,18.00
2018-09-04T03:02:27.915Z,18.00
2018-09-04T03:03:27.811Z,17.95
2018-09-04T03:04:27.720Z,18.01
2018-09-04T03:05:27.866Z,17.94
2018-09-04T03:06:27.529Z,17.98
2018-09-04T03:07:27.423Z,17.95
2018-09-04T03:08:27.332Z,17.94
2018-09-04T03:09:27.228Z,17.92
2018-09-04T03:10:27.138Z,17.87
2018-09-04T03:11:27.035Z,17.86
2018-09-04T03:12:26.943Z,17.90
2018-09-04T03:13:26.887Z,17.94
2018-09-04T03:14:26.741Z,17.95
2018-09-04T03:15:26.652Z,17.95
2018-09-04T03:16:26.555Z,17.86
2018-09-04T03:17:26.452Z,17.87
2018-09-04T03:18:26.362Z,17.85
2018-09-04T03:19:26.259Z,17.79
2018-09-04T03:20:26.158Z,17.85
2018-09-04T03:21:26.065Z,17.87
2018-09-04T03:22:25.960Z,17.95
2018-09-04T03:23:25.870Z,17.90
2018-09-04T03:24:25.768Z,17.89
2018-09-04T03:25:25.677Z,17.92
2018-09-04T03:26:25.573Z,17.89
2018-09-04T03:27:25.483Z,17.92
2018-09-04T03:28:25.378Z,17.97
2018-09-04T03:29:25.288Z,17.90
2018-09-04T03:30:25.185Z,17.95
2018-09-04T03:31:25.095Z,17.94
2018-09-04T03:32:24.993Z,17.90
2018-09-04T03:33:24.899Z,17.94
2018-09-04T03:34:24.796Z,18.00
2018-09-04T03:35:24.706Z,17.98
2018-09-04T03:36:24.607Z,17.97
2018-09-04T03:37:24.511Z,17.97
2018-09-04T03:38:24.407Z,17.97
2018-09-04T03:39:24.307Z,17.97
2018-09-04T03:40:24.214Z,17.98
2018-09-04T03:41:24.124Z,17.97
2018-09-04T03:42:24.058Z,17.98
2018-09-04T03:43:23.917Z,17.95
2018-09-04T03:44:23.841Z,18.05
2018-09-04T03:45:23.723Z,18.03
2018-09-04T03:46:23.631Z,18.01
2018-09-04T03:47:23.528Z,17.97
2018-09-04T03:48:23.440Z,18.01
2018-09-04T03:49:23.334Z,18.01
2018-09-04T03:50:23.255Z,18.00
2018-09-04T03:51:23.140Z,17.98
2018-09-04T03:52:23.118Z,18.03
2018-09-04T03:53:22.948Z,17.97
2018-09-04T03:54:22.855Z,17.97
2018-09-04T03:55:22.751Z,17.97
2018-09-04T03:56:22.664Z,17.95
2018-09-04T03:57:22.558Z,18.01
2018-09-04T03:58:22.467Z,18.03
2018-09-04T03:59:22.363Z,18.04
2018-09-04T04:00:22.274Z,18.01
2018-09-04T04:01:22.232Z,18.01
2018-09-04T04:02:22.078Z,18.10
2018-09-04T04:03:21.979Z,18.03
2018-09-04T04:04:21.885Z,18.11
2018-09-04T04:05:22.032Z,18.04
2018-09-04T04:06:21.681Z,18.01
2018-09-04T04:07:21.588Z,18.05
2018-09-04T04:08:21.484Z,18.00
2018-09-04T04:09:21.398Z,18.04
2018-09-04T04:10:21.295Z,18.07
2018-09-04T04:11:21.200Z,18.04
2018-09-04T04:12:21.096Z,18.00
2018-09-04T04:13:21.005Z,17.89
2018-09-04T04:14:20.903Z,17.89
2018-09-04T04:15:20.810Z,17.83
2018-09-04T04:16:20.707Z,17.92
2018-09-04T04:17:20.617Z,17.87
2018-09-04T04:18:20.513Z,17.92
2018-09-04T04:19:20.458Z,17.98
2018-09-04T04:20:20.319Z,17.95
2018-09-04T04:21:20.217Z,17.97
2018-09-04T04:22:20.125Z,17.92
2018-09-04T04:23:20.022Z,17.87
2018-09-04T04:24:19.931Z,17.94
2018-09-04T04:25:20.080Z,17.94
2018-09-04T04:26:19.741Z,17.95
2018-09-04T04:27:19.664Z,17.97
2018-09-04T04:28:19.542Z,17.94
2018-09-04T04:29:19.454Z,17.97
2018-09-04T04:30:19.352Z,17.98
2018-09-04T04:31:19.246Z,17.94
2018-09-04T04:32:19.144Z,17.87
2018-09-04T04:33:19.050Z,17.95
2018-09-04T04:34:18.948Z,18.00
2018-09-04T04:35:18.857Z,17.87
2018-09-04T04:36:18.757Z,17.92
2018-09-04T04:37:18.662Z,17.90
2018-09-04T04:38:18.559Z,17.90
2018-09-04T04:39:18.469Z,17.97
2018-09-04T04:40:18.373Z,17.90
2018-09-04T04:41:18.274Z,17.98
2018-09-04T04:42:18.171Z,17.98
2018-09-04T04:43:18.085Z,17.94
2018-09-04T04:44:17.980Z,17.98
2018-09-04T04:45:17.886Z,17.97
2018-09-04T04:46:17.782Z,18.00
2018-09-04T04:47:17.682Z,18.03
2018-09-04T04:48:17.604Z,18.00
2018-09-04T04:49:17.486Z,17.92
2018-09-04T04:50:17.394Z,18.04
2018-09-04T04:51:17.291Z,18.08
2018-09-04T04:52:17.201Z,18.05
2018-09-04T04:53:17.097Z,18.00
2018-09-04T04:54:17.006Z,18.13
2018-09-04T04:55:16.909Z,18.20
2018-09-04T04:56:16.813Z,18.40
2018-09-04T04:57:16.716Z,18.41
2018-09-04T04:58:16.631Z,18.59
2018-09-04T04:59:16.516Z,18.63
2018-09-04T05:00:16.450Z,18.73
2018-09-04T05:01:16.325Z,18.96
2018-09-04T05:02:16.229Z,19.04
2018-09-04T05:03:16.126Z,19.19
2018-09-04T05:04:16.039Z,19.21
2018-09-04T05:05:15.933Z,19.26
2018-09-04T05:06:15.842Z,19.47
2018-09-04T05:07:15.738Z,19.48
2018-09-04T05:08:15.648Z,19.49
2018-09-04T05:09:15.545Z,19.62
2018-09-04T05:10:15.454Z,19.81
2018-09-04T05:11:15.437Z,19.84
2018-09-04T05:12:15.260Z,19.94
2018-09-04T05:13:15.156Z,20.02
2018-09-04T05:14:15.065Z,20.03
2018-09-04T05:15:14.962Z,20.06
2018-09-04T05:16:14.872Z,19.85
2018-09-04T05:17:14.779Z,19.86
2018-09-04T05:18:14.680Z,19.99
2018-09-04T05:19:14.587Z,19.86
2018-09-04T05:20:14.483Z,20.07
2018-09-04T05:21:14.392Z,20.19
2018-09-04T05:22:14.294Z,20.39
2018-09-04T05:23:14.199Z,20.59
2018-09-04T05:24:14.108Z,20.78
2018-09-04T05:25:14.004Z,20.85
2018-09-04T05:26:13.913Z,20.97
2018-09-04T05:27:13.810Z,20.97
2018-09-04T05:28:13.719Z,20.80
2018-09-04T05:29:13.633Z,20.77
2018-09-04T05:30:13.529Z,20.72
2018-09-04T05:31:13.433Z,20.37
2018-09-04T05:32:13.344Z,20.21
2018-09-04T05:33:13.243Z,20.41
2018-09-04T05:34:13.149Z,20.25
2018-09-04T05:35:13.045Z,20.29
2018-09-04T05:36:12.960Z,20.29
2018-09-04T05:37:12.863Z,20.37
2018-09-04T05:38:12.760Z,20.66
2018-09-04T05:39:12.671Z,20.87
2018-09-04T05:40:12.580Z,20.82
2018-09-04T05:41:12.475Z,20.99
2018-09-04T05:42:12.386Z,21.35
2018-09-04T05:43:12.283Z,21.52
2018-09-04T05:44:12.190Z,21.42
2018-09-04T05:45:12.100Z,21.14
2018-09-04T05:46:12.012Z,20.47
2018-09-04T05:47:11.906Z,20.18
2018-09-04T05:48:11.822Z,20.10
2018-09-04T05:49:11.713Z,20.58
2018-09-04T05:50:11.620Z,20.65
2018-09-04T05:51:11.532Z,20.85
2018-09-04T05:52:11.428Z,20.95
2018-09-04T05:53:11.335Z,20.62
2018-09-04T05:54:11.245Z,20.36
2018-09-04T05:55:11.173Z,20.44
2018-09-04T05:56:11.051Z,20.72
2018-09-04T05:57:10.961Z,20.97
2018-09-04T05:58:10.858Z,21.22
2018-09-04T05:59:10.767Z,21.52
2018-09-04T06:00:10.675Z,21.64
2018-09-04T06:01:10.573Z,21.62
2018-09-04T06:02:10.481Z,21.70
2018-09-04T06:03:10.380Z,21.80
2018-09-04T06:04:10.289Z,22.26
2018-09-04T06:05:10.197Z,22.28
2018-09-04T06:06:10.105Z,22.48
2018-09-04T06:07:10.003Z,22.23
2018-09-04T06:08:09.910Z,22.30
2018-09-04T06:09:09.821Z,22.53
2018-09-04T06:10:09.717Z,22.62
2018-09-04T06:11:09.632Z,22.33
2018-09-04T06:12:09.535Z,22.23
2018-09-04T06:13:09.445Z,22.28
2018-09-04T06:14:09.342Z,22.23
2018-09-04T06:15:09.252Z,22.32
2018-09-04T06:16:09.160Z,22.13
2018-09-04T06:17:09.057Z,22.10
2018-09-04T06:18:08.966Z,21.99
2018-09-04T06:19:08.874Z,21.80
2018-09-04T06:20:09.109Z,21.67
2018-09-04T06:21:08.692Z,21.76
2018-09-04T06:22:08.591Z,21.70
2018-09-04T06:23:08.511Z,21.98
2018-09-04T06:24:08.408Z,22.26
2018-09-04T06:25:08.306Z,22.76
2018-09-04T06:26:08.222Z,23.25
2018-09-04T06:27:08.124Z,23.44
2018-09-04T06:28:08.034Z,23.71
2018-09-04T06:29:07.932Z,23.98
2018-09-04T06:30:07.838Z,23.91
2018-09-04T06:31:07.749Z,24.02
2018-09-04T06:32:07.660Z,23.87
2018-09-04T06:33:07.567Z,23.86
2018-09-04T06:34:07.478Z,24.03
2018-09-04T06:35:07.389Z,24.39
2018-09-04T06:36:07.282Z,24.42
2018-09-04T06:37:07.190Z,24.45
2018-09-04T06:38:07.101Z,24.54
2018-09-04T06:39:06.998Z,24.53
2018-09-04T06:40:07.159Z,24.39
2018-09-04T06:41:06.818Z,24.35
2018-09-04T06:42:06.724Z,24.47
2018-09-04T06:43:06.634Z,24.33
2018-09-04T06:44:06.546Z,24.02
2018-09-04T06:45:06.455Z,23.87
2018-09-04T06:46:06.353Z,23.44
2018-09-04T06:47:06.258Z,23.43
2018-09-04T06:48:06.171Z,23.31
2018-09-04T06:49:06.076Z,23.13
2018-09-04T06:50:05.986Z,23.13
2018-09-04T06:51:05.899Z,23.54
2018-09-04T06:52:05.804Z,23.86
2018-09-04T06:53:05.729Z,23.95
2018-09-04T06:54:05.611Z,24.30
2018-09-04T06:55:05.520Z,24.58
2018-09-04T06:56:05.428Z,24.88
2018-09-04T06:57:05.338Z,25.29
2018-09-04T06:58:05.246Z,25.51
2018-09-04T06:59:05.156Z,25.21
2018-09-04T07:00:05.065Z,25.01
2018-09-04T07:01:04.974Z,25.07
2018-09-04T07:02:04.882Z,25.11
2018-09-04T07:03:04.792Z,24.80
2018-09-04T07:04:04.701Z,24.80
2018-09-04T07:05:04.611Z,25.17
2018-09-04T07:06:04.535Z,25.16
2018-09-04T07:07:04.417Z,25.44
2018-09-04T07:08:04.328Z,25.73
2018-09-04T07:09:04.235Z,25.91
2018-09-04T07:10:04.145Z,26.16
2018-09-04T07:11:04.056Z,25.91
2018-09-04T07:12:03.964Z,25.93
2018-09-04T07:13:03.871Z,25.11
2018-09-04T07:14:03.785Z,24.58
2018-09-04T07:15:03.741Z,24.57
2018-09-04T07:16:03.599Z,24.30
2018-09-04T07:17:03.570Z,24.06
2018-09-04T07:18:03.418Z,23.31
2018-09-04T07:19:03.331Z,23.03
2018-09-04T07:20:03.236Z,22.91
2018-09-04T07:21:03.145Z,22.85
2018-09-04T07:22:03.050Z,22.73
2018-09-04T07:23:02.964Z,22.62
2018-09-04T07:24:02.911Z,22.45
2018-09-04T07:25:02.781Z,22.45
2018-09-04T07:26:02.692Z,22.30
2018-09-04T07:27:02.600Z,21.99
2018-09-04T07:28:02.511Z,21.77
2018-09-04T07:29:02.422Z,21.60
2018-09-04T07:30:02.316Z,21.48
2018-09-04T07:31:02.226Z,21.50
2018-09-04T07:32:02.133Z,21.52
2018-09-04T07:33:02.073Z,21.48
2018-09-04T07:34:01.952Z,21.67
2018-09-04T07:35:01.862Z,21.55
2018-09-04T07:36:01.771Z,21.51
2018-09-04T07:37:01.681Z,21.57
2018-09-04T07:38:01.581Z,21.52
2018-09-04T07:39:01.485Z,21.52
2018-09-04T07:40:01.397Z,21.69
2018-09-04T07:41:01.306Z,21.82
2018-09-04T07:42:01.239Z,21.96
2018-09-04T07:43:01.112Z,21.91
2018-09-04T07:44:01.021Z,22.04
2018-09-04T07:45:00.929Z,22.08
2018-09-04T07:46:00.837Z,22.13
2018-09-04T07:47:00.738Z,22.06
2018-09-04T07:48:00.645Z,22.04
2018-09-04T07:49:00.552Z,22.02
2018-09-04T07:50:00.463Z,22.02
2018-09-04T07:51:00.371Z,22.06
2018-09-04T07:52:00.280Z,22.13
2018-09-04T07:53:00.177Z,22.18
2018-09-04T07:54:00.088Z,22.20
2018-09-04T07:54:59.996Z,22.25
2018-09-04T07:55:59.905Z,22.22
2018-09-04T07:56:59.801Z,22.26
2018-09-04T07:57:59.711Z,22.30
2018-09-04T07:58:59.619Z,22.17
2018-09-04T07:59:59.529Z,22.33
2018-09-04T08:00:59.513Z,22.17
2018-09-04T08:01:59.337Z,22.33
2018-09-04T08:02:59.244Z,22.39
2018-09-04T08:03:59.153Z,22.35
2018-09-04T08:04:59.065Z,22.43
2018-09-04T08:05:58.960Z,22.43
2018-09-04T08:06:58.868Z,22.57
2018-09-04T08:07:58.778Z,22.54
2018-09-04T08:08:58.689Z,22.60
2018-09-04T08:09:58.595Z,22.53
2018-09-04T08:10:58.492Z,22.41
2018-09-04T08:11:58.403Z,22.36
2018-09-04T08:12:58.301Z,22.41
2018-09-04T08:13:58.208Z,22.44
2018-09-04T08:14:58.117Z,22.60
2018-09-04T08:15:58.026Z,22.59
2018-09-04T08:16:57.934Z,22.68
2018-09-04T08:17:57.831Z,22.60
2018-09-04T08:18:57.742Z,22.59
2018-09-04T08:19:57.900Z,22.65
2018-09-04T08:20:57.572Z,22.66
2018-09-04T08:21:57.457Z,22.69
2018-09-04T08:22:57.365Z,22.80
2018-09-04T08:23:57.275Z,22.70
2018-09-04T08:24:57.172Z,22.80
2018-09-04T08:25:57.097Z,22.66
2018-09-04T08:26:56.989Z,22.78
2018-09-04T08:27:56.890Z,22.85
2018-09-04T08:28:56.798Z,22.81
2018-09-04T08:29:56.706Z,22.99
2018-09-04T08:30:56.614Z,23.05
2018-09-04T08:31:56.510Z,23.05
2018-09-04T08:32:56.447Z,23.05
2018-09-04T08:33:56.333Z,23.09
2018-09-04T08:34:56.239Z,23.09
2018-09-04T08:35:56.135Z,23.06
2018-09-04T08:36:56.044Z,23.12
2018-09-04T08:37:55.956Z,23.24
2018-09-04T08:38:55.862Z,23.27
2018-09-04T08:39:55.762Z,23.23
2018-09-04T08:40:55.670Z,23.31
2018-09-04T08:41:55.577Z,23.28
2018-09-04T08:42:55.475Z,23.37
2018-09-04T08:43:55.385Z,23.36
2018-09-04T08:44:55.292Z,23.36
2018-09-04T08:45:55.202Z,23.51
2018-09-04T08:46:55.099Z,23.62
2018-09-04T08:47:55.022Z,23.73
2018-09-04T08:48:54.917Z,23.71
2018-09-04T08:49:55.076Z,23.77
2018-09-04T08:50:54.722Z,23.96
2018-09-04T08:51:54.633Z,23.93
2018-09-04T08:52:54.540Z,23.95
2018-09-04T08:53:54.454Z,23.93
2018-09-04T08:54:54.349Z,23.93
2018-09-04T08:55:54.256Z,24.01
2018-09-04T08:56:54.168Z,24.02
2018-09-04T08:57:54.074Z,24.10
2018-09-04T08:58:53.973Z,24.23
2018-09-04T08:59:53.881Z,24.23
2018-09-04T09:00:53.790Z,24.29
2018-09-04T09:01:53.699Z,24.28
2018-09-04T09:02:53.596Z,24.23
2018-09-04T09:03:53.618Z,24.33
2018-09-04T09:04:53.415Z,24.43
2018-09-04T09:05:53.323Z,24.40
2018-09-04T09:06:53.220Z,24.38
2018-09-04T09:07:53.132Z,24.43
2018-09-04T09:08:53.038Z,24.38
2018-09-04T09:09:53.002Z,24.11
2018-09-04T09:10:52.855Z,24.08
2018-09-04T09:11:52.753Z,24.23
2018-09-04T09:12:52.663Z,24.24
2018-09-04T09:13:52.572Z,24.03
2018-09-04T09:14:52.481Z,24.02
2018-09-04T09:15:52.378Z,24.08
2018-09-04T09:16:52.373Z,24.17
2018-09-04T09:17:52.199Z,24.24
2018-09-04T09:18:52.105Z,24.29
2018-09-04T09:19:52.002Z,24.26
2018-09-04T09:20:51.911Z,24.33
2018-09-04T09:21:51.820Z,24.26
2018-09-04T09:22:51.780Z,24.32
2018-09-04T09:23:51.628Z,24.36
2018-09-04T09:24:51.537Z,24.35
2018-09-04T09:25:51.447Z,24.38
2018-09-04T09:26:51.358Z,24.28
2018-09-04T09:27:51.252Z,24.36
2018-09-04T09:28:51.160Z,24.43
2018-09-04T09:29:51.070Z,24.70
2018-09-04T09:30:50.978Z,25.26
2018-09-04T09:31:50.887Z,25.63
2018-09-04T09:32:50.784Z,25.66
2018-09-04T09:33:50.693Z,26.05
2018-09-04T09:34:50.606Z,26.02
2018-09-04T09:35:50.512Z,25.81
2018-09-04T09:36:50.544Z,26.07
2018-09-04T09:37:50.317Z,26.19
2018-09-04T09:38:50.228Z,26.21
2018-09-04T09:39:50.136Z,26.07
2018-09-04T09:40:50.046Z,26.10
2018-09-04T09:41:49.945Z,26.07
2018-09-04T09:42:49.853Z,26.10
2018-09-04T09:43:49.761Z,25.95
2018-09-04T09:44:49.674Z,25.95
2018-09-04T09:45:49.584Z,25.98
2018-09-04T09:46:49.490Z,25.69
2018-09-04T09:47:49.397Z,25.48
2018-09-04T09:48:49.295Z,25.25
2018-09-04T09:49:49.203Z,24.96
2018-09-04T09:50:49.152Z,24.88
2018-09-04T09:51:49.035Z,24.86
2018-09-04T09:52:49.022Z,24.78
2018-09-04T09:53:48.839Z,24.89
2018-09-04T09:54:48.749Z,24.86
2018-09-04T09:55:48.647Z,24.88
2018-09-04T09:56:48.561Z,24.91
2018-09-04T09:57:48.464Z,25.04
2018-09-04T09:58:48.373Z,25.08
2018-09-04T09:59:48.342Z,25.13
2018-09-04T10:00:48.194Z,25.26
2018-09-04T10:01:48.097Z,25.33
2018-09-04T10:02:47.998Z,25.22
2018-09-04T10:03:47.912Z,25.31
2018-09-04T10:04:47.819Z,25.31
2018-09-04T10:05:47.725Z,25.35
2018-09-04T10:06:47.635Z,25.48
2018-09-04T10:07:47.592Z,25.62
2018-09-04T10:08:47.443Z,25.65
2018-09-04T10:09:47.410Z,25.73
2018-09-04T10:10:47.258Z,25.77
2018-09-04T10:11:47.168Z,25.80
2018-09-04T10:12:47.076Z,25.54
2018-09-04T10:13:46.986Z,25.36
2018-09-04T10:14:46.883Z,25.36
2018-09-04T10:15:46.791Z,25.29
2018-09-04T10:16:46.702Z,25.22
2018-09-04T10:17:46.622Z,25.41
2018-09-04T10:18:46.520Z,25.53
2018-09-04T10:19:46.475Z,25.47
2018-09-04T10:20:46.326Z,25.62
2018-09-04T10:21:46.235Z,25.62
2018-09-04T10:22:46.143Z,25.62
2018-09-04T10:23:46.054Z,25.70
2018-09-04T10:24:45.963Z,25.80
2018-09-04T10:25:45.872Z,25.99
2018-09-04T10:26:45.780Z,25.91
2018-09-04T10:27:45.677Z,26.03
2018-09-04T10:28:45.585Z,25.88
2018-09-04T10:29:45.494Z,25.84
2018-09-04T10:30:45.409Z,25.95
2018-09-04T10:31:45.313Z,25.98
2018-09-04T10:32:45.211Z,25.81
2018-09-04T10:33:45.120Z,25.87
2018-09-04T10:34:45.028Z,25.83
2018-09-04T10:35:45.021Z,25.85
2018-09-04T10:36:44.847Z,25.87
2018-09-04T10:37:44.757Z,25.95
2018-09-04T10:38:44.653Z,26.10
2018-09-04T10:39:44.575Z,26.07
2018-09-04T10:40:44.472Z,26.05
2018-09-04T10:41:44.380Z,26.16
2018-09-04T10:42:44.291Z,26.16
2018-09-04T10:43:44.199Z,26.28
2018-09-04T10:44:44.109Z,26.16
2018-09-04T10:45:44.006Z,26.34
2018-09-04T10:46:43.918Z,26.62
2018-09-04T10:47:43.823Z,26.58
2018-09-04T10:48:43.731Z,26.56
2018-09-04T10:49:43.642Z,26.63
2018-09-04T10:50:43.550Z,26.60
2018-09-04T10:51:43.460Z,26.58
2018-09-04T10:52:43.357Z,26.65
2018-09-04T10:53:43.265Z,26.31
2018-09-04T10:54:43.175Z,26.15
2018-09-04T10:55:43.156Z,26.22
2018-09-04T10:56:42.994Z,26.26
2018-09-04T10:57:42.963Z,26.21
2018-09-04T10:58:42.814Z,26.26
2018-09-04T10:59:42.971Z,26.26
2018-09-04T11:00:42.619Z,26.55
2018-09-04T11:01:42.527Z,26.62
2018-09-04T11:02:42.437Z,26.81
2018-09-04T11:03:42.349Z,27.00
2018-09-04T11:04:42.255Z,26.95
2018-09-04T11:05:42.166Z,26.81
2018-09-04T11:06:42.073Z,26.83
2018-09-04T11:07:41.987Z,26.92
2018-09-04T11:08:41.891Z,26.97
2018-09-04T11:09:41.877Z,26.92
2018-09-04T11:10:41.698Z,26.85
2018-09-04T11:11:41.607Z,26.70
2018-09-04T11:12:41.517Z,26.68
2018-09-04T11:13:41.424Z,26.71
2018-09-04T11:14:41.336Z,26.88
2018-09-04T11:15:41.243Z,26.83
2018-09-04T11:16:41.163Z,26.75
2018-09-04T11:17:41.061Z,26.88
2018-09-04T11:18:40.971Z,26.80
2018-09-04T11:19:41.130Z,26.95
2018-09-04T11:20:40.790Z,27.05
2018-09-04T11:21:40.698Z,26.96
2018-09-04T11:22:40.608Z,27.05
2018-09-04T11:23:40.536Z,27.03
2018-09-04T11:24:40.429Z,27.08
2018-09-04T11:25:40.325Z,27.20
2018-09-04T11:26:40.232Z,27.30
2018-09-04T11:27:40.141Z,27.11
2018-09-04T11:28:40.050Z,26.99
2018-09-04T11:29:39.960Z,26.97
2018-09-04T11:30:39.906Z,26.92
2018-09-04T11:31:39.778Z,26.96
2018-09-04T11:32:39.687Z,26.96
2018-09-04T11:33:39.597Z,26.93
2018-09-04T11:34:39.506Z,26.95
2018-09-04T11:35:39.416Z,27.18
2018-09-04T11:36:39.326Z,27.37
2018-09-04T11:37:39.234Z,27.21
2018-09-04T11:38:39.142Z,26.80
2018-09-04T11:39:39.052Z,26.71
2018-09-04T11:40:39.025Z,26.80
2018-09-04T11:41:38.871Z,26.93
2018-09-04T11:42:38.780Z,26.92
2018-09-04T11:43:38.677Z,26.90
2018-09-04T11:44:38.585Z,27.03
2018-09-04T11:45:38.509Z,27.11
2018-09-04T11:46:38.408Z,27.10
2018-09-04T11:47:38.312Z,27.17
2018-09-04T11:48:38.222Z,27.40
2018-09-04T11:49:38.144Z,27.39
2018-09-04T11:50:38.042Z,27.42
2018-09-04T11:51:37.950Z,27.15
2018-09-04T11:52:37.858Z,27.32
2018-09-04T11:53:37.767Z,27.37
2018-09-04T11:54:37.677Z,27.39
2018-09-04T11:55:37.579Z,27.37
2018-09-04T11:56:37.496Z,27.48
2018-09-04T11:57:37.404Z,27.48
2018-09-04T11:58:37.315Z,27.45
2018-09-04T11:59:37.256Z,27.21
2018-09-04T12:00:37.134Z,27.00
2018-09-04T12:01:37.030Z,27.02
2018-09-04T12:02:36.939Z,26.93
2018-09-04T12:03:36.847Z,26.88
2018-09-04T12:04:36.756Z,26.78
2018-09-04T12:05:36.722Z,26.68
2018-09-04T12:06:36.645Z,26.70
2018-09-04T12:07:36.488Z,26.66
2018-09-04T12:08:36.394Z,26.80
2018-09-04T12:09:36.302Z,26.97
2018-09-04T12:10:36.211Z,27.10
2018-09-04T12:11:36.123Z,27.25
2018-09-04T12:12:36.140Z,27.22
2018-09-04T12:13:35.942Z,27.25
2018-09-04T12:14:35.848Z,27.36
2018-09-04T12:15:35.759Z,27.42
2018-09-04T12:16:35.670Z,27.49
2018-09-04T12:17:35.577Z,27.39
2018-09-04T12:18:35.486Z,27.45
2018-09-04T12:19:35.395Z,27.25
2018-09-04T12:20:35.306Z,27.12
2018-09-04T12:21:35.201Z,27.15
2018-09-04T12:22:35.110Z,27.11
2018-09-04T12:23:35.019Z,27.22
2018-09-04T12:24:34.929Z,27.14
2018-09-04T12:25:34.837Z,27.25
2018-09-04T12:26:34.747Z,27.51
2018-09-04T12:27:34.656Z,27.74
2018-09-04T12:28:34.562Z,27.89
2018-09-04T12:29:34.488Z,27.82
2018-09-04T12:30:34.383Z,27.92
2018-09-04T12:31:34.294Z,27.59
2018-09-04T12:32:34.204Z,27.25
2018-09-04T12:33:34.110Z,27.25
2018-09-04T12:34:34.021Z,27.26
2018-09-04T12:35:33.934Z,27.30
2018-09-04T12:36:33.884Z,27.25
2018-09-04T12:37:33.747Z,27.15
2018-09-04T12:38:33.661Z,27.07
2018-09-04T12:39:33.816Z,27.10
2018-09-04T12:40:33.475Z,27.00
2018-09-04T12:41:33.383Z,26.81
2018-09-04T12:42:33.364Z,26.80
2018-09-04T12:43:33.202Z,26.80
2018-09-04T12:44:33.112Z,26.96
2018-09-04T12:45:33.021Z,26.88
2018-09-04T12:46:32.918Z,27.07
2018-09-04T12:47:32.828Z,27.18
2018-09-04T12:48:32.773Z,27.35
2018-09-04T12:49:32.649Z,27.37
2018-09-04T12:50:32.554Z,27.45
2018-09-04T12:51:32.464Z,27.30